CAL6 weather

Prince Albert (Fire Centre) Heliport
Prince Albert, Saskatchewan, Canada

Public forecast

Using degrees Celsius for public forecast. Weather courtesy of forecast.io.

METAR (pilot weather report)

Closest report is Prince Albert Glass Field, 3.1 nm (5.7 km) ESE. Retrieved 2019/05/25 20:00 UTC (33 minutes ago):

CYPA 252000Z CCA 08009KT 15SM SCT028 BKN040 BKN250 11/02 A3003 RMK CU3SC2CI1 SLP185

TAF (pilot weather forecast)

Closest forecast is Prince Albert Glass Field, 3.1 nm (5.7 km) ESE. Retrieved 2019/05/25 19:42 UTC (51 minutes ago):

TAF CYPA 251838Z 2519/2607 06010KT P6SM BKN020 BECMG 2519/2521 SCT050 FM252100 06008KT P6SM BKN050 TEMPO 2521/2605 SCT050 FM260500 14005KT P6SM VCSH BKN050 RMK NXT FCST BY 260100Z